Home > Products > Valid Products > TAF

000
FTUS43 KLMK 221100
TAFBWG
TAF
KBWG 221120Z 2212/2312 23003KT P6SM BKN250
     FM221500 25008KT P6SM FEW045
     FM230000 22003KT P6SM SCT040
     FM230600 24003KT P6SM VCSH BKN040=



000
FTUS43 KLMK 221100
TAFSDF
TAF
KSDF 221120Z 2212/2318 23007KT P6SM SCT250
     FM221500 25009KT P6SM SCT045
     FM230000 22004KT P6SM VCSH BKN040=



000
FTUS43 KLMK 221100
TAFLEX
TAF
KLEX 221120Z 2212/2312 21008KT P6SM SCT250
     FM221500 25009KT P6SM SCT045
     FM222100 23006KT P6SM VCSH BKN040=



000
FTUS43 KLMK 220500
TAFBWG
TAF
KBWG 220521Z 2206/2306 23004KT P6SM BKN250
     FM221500 25008KT P6SM FEW045
     FM230000 22003KT P6SM BKN040=



000
FTUS43 KLMK 220500
TAFSDF
TAF
KSDF 220521Z 2206/2312 18005KT P6SM FEW040 BKN250
     FM221500 25009KT P6SM SCT045
     FM230000 22004KT P6SM VCSH BKN040=



000
FTUS43 KLMK 220500
TAFLEX
TAF
KLEX 220521Z 2206/2306 20005KT P6SM FEW040 BKN250
     FM221500 25009KT P6SM SCT045
     FM222100 23006KT P6SM VCSH BKN040=



000
FTUS43 KLMK 212300
TAFBWG
TAF
KBWG 212320Z 2200/2224 22004KT P6SM BKN250
     FM221500 25008KT P6SM FEW045=



000
FTUS43 KLMK 212300
TAFLEX
TAF
KLEX 212320Z 2200/2224 20005KT P6SM BKN250
     FM221500 25009KT P6SM SCT045=



000
FTUS43 KLMK 212300
TAFSDF
TAF
KSDF 212320Z 2200/2306 21005KT P6SM BKN250
     FM221500 25009KT P6SM SCT045
     FM230000 21004KT P6SM BKN200=



000
FTUS43 KLMK 211700
TAFSDF
TAF
KSDF 211730Z 2118/2224 24010KT P6SM SCT050 BKN150
     FM220100 21005KT P6SM BKN250
     FM221500 25008KT P6SM SCT050 BKN250=



000
FTUS43 KLMK 211700
TAFBWG
TAF
KBWG 211730Z 2118/2218 24009KT P6SM FEW040 SCT200
     FM220100 VRB03KT P6SM SCT250
     FM221600 25007KT P6SM FEW050 SCT250=



000
FTUS43 KLMK 211700
TAFLEX
TAF
KLEX 211730Z 2118/2218 24010KT P6SM VCSH SCT040 BKN250
     FM220100 20005KT P6SM SCT200
     FM221400 24008KT P6SM SCT050 BKN250=



000
FTUS43 KLMK 211100
TAFBWG
TAF
KBWG 211139Z 2112/2212 24003KT P6SM SCT200
     FM211600 24007KT P6SM SCT040 BKN200
     FM220200 VRB03KT P6SM SCT200=



000
FTUS43 KLMK 211100
TAFSDF
TAF
KSDF 211139Z 2112/2218 20005KT P6SM FEW040 BKN200
     FM211500 25008KT P6SM SCT040 BKN250
     FM220100 21005KT P6SM BKN250=



000
FTUS43 KLMK 211100
TAFLEX
TAF
KLEX 211139Z 2112/2212 20004KT P6SM BKN250
     FM211500 24008KT P6SM SCT040 BKN250
     FM220200 19004KT P6SM SCT200=



000
FTUS43 KLMK 211000 AAB
TAFBWG
TAF AMD
KBWG 211036Z 2111/2206 19003KT P6SM SCT250
     FM211200 24003KT P6SM SCT200
     FM211600 24007KT P6SM SCT040 BKN200=



000
FTUS43 KLMK 211000 AAA
TAFLEX
TAF AMD
KLEX 211035Z 2111/2206 19004KT P6SM BKN250
     FM211300 24008KT P6SM SCT040 BKN250=



000
FTUS43 KLMK 210900 AAA
TAFBWG
TAF AMD
KBWG 210934Z 2110/2206 19003KT P6SM SCT250
      TEMPO 2110/2112 4SM BR SCT002
     FM211200 24007KT P6SM SCT200=



000
FTUS43 KLMK 210500
TAFLEX
TAF
KLEX 210520Z 2106/2206 20005KT P6SM SCT120
     FM210900 19004KT 4SM BR BKN250
     FM211300 24008KT P6SM SCT040 BKN250=



000
FTUS43 KLMK 210500
TAFSDF
TAF
KSDF 210520Z 2106/2212 22005KT P6SM FEW100 BKN200
     FM211500 25008KT P6SM SCT040 BKN250
     FM220100 21005KT P6SM BKN250=



000
FTUS43 KLMK 210500
TAFBWG
TAF
KBWG 210520Z 2106/2206 20004KT P6SM SCT120
     FM210800 00000KT 5SM BR SCT250
      TEMPO 2109/2112 2SM BR SCT002
     FM211200 24007KT P6SM SCT200=



000
FTUS43 KLMK 202300
TAFSDF
TAF
KSDF 202339Z 2100/2206 VRB03KT P6SM SCT080
     FM211500 25008KT P6SM SCT040 BKN250
     FM220100 21005KT P6SM BKN250=



000
FTUS43 KLMK 202300
TAFLEX
TAF
KLEX 202339Z 2100/2124 20007KT P6SM SCT120
     FM210900 19004KT 4SM BR BKN250
     FM211500 24008KT P6SM SCT040 BKN250=



000
FTUS43 KLMK 202300
TAFBWG
TAF
KBWG 202339Z 2100/2124 24006KT P6SM SCT040 SCT100
     FM210700 00000KT 4SM BR SCT250
      TEMPO 2109/2113 1SM BR SCT002
     FM211400 24007KT P6SM FEW040 SCT250=



000
FTUS43 KLMK 202100 AAB
TAFLEX
TAF AMD
KLEX 202158Z 2022/2118 VRB05KT P6SM SCT030 BKN120
     FM210900 18005KT 6SM BR FEW050 BKN250
     FM211400 23007KT P6SM SCT040 BKN250=



000
FTUS43 KLMK 202100 AAB
TAFSDF
TAF AMD
KSDF 202156Z 2022/2124 VRB05KT P6SM FEW035 BKN250
     FM211500 25006KT P6SM SCT040 BKN250=



000
FTUS43 KLMK 202000 AAA
TAFLEX
TAF AMD
KLEX 202038Z 2021/2118 26007KT P6SM VCTS SCT040CB BKN250
      TEMPO 2021/2023 VRB20G30KT 2SM TSRA BKN025CB
     FM210600 22004KT P6SM SCT050 BKN250
     FM211400 23007KT P6SM SCT040 BKN250=



000
FTUS43 KLMK 202000 AAA
TAFBWG
TAF AMD
KBWG 202037Z 2021/2118 25005KT P6SM VCTS BKN040CB
      TEMPO 2021/2023 VRB20G30KT 2SM TSRA BKN025CB
     FM210400 VRB04KT P6SM SCT050 BKN250
     FM210900 00000KT 4SM BR SCT250
     FM211400 24007KT P6SM FEW040 SCT250=



000
FTUS43 KLMK 201900 AAA
TAFSDF
TAF AMD
KSDF 201928Z 2019/2124 28012KT P6SM FEW040 BKN250
     FM202000 28010KT P6SM VCTS BKN040CB
      TEMPO 2020/2022 VRB20G30KT 2SM TSRA BKN025CB
     FM210500 21004KT P6SM SCT040 BKN250
     FM211500 25006KT P6SM SCT040 BKN250=



000
FTUS43 KLMK 201700
TAFBWG
TAF
KBWG 201721Z 2018/2118 25007KT P6SM SCT025 BKN250
     FM202100 25005KT P6SM VCTS BKN040CB
     FM210400 VRB04KT P6SM SCT050 BKN250
     FM210900 00000KT 4SM BR SCT250
     FM211400 24007KT P6SM FEW040 SCT250=



000
FTUS43 KLMK 201700
TAFSDF
TAF
KSDF 201721Z 2018/2124 27007KT P6SM FEW040 BKN250
     FM202000 27006KT P6SM VCTS BKN040CB
     FM210500 21004KT P6SM SCT040 BKN250
     FM211500 25006KT P6SM SCT040 BKN250=



000
FTUS43 KLMK 201700
TAFLEX
TAF
KLEX 201721Z 2018/2118 25007KT P6SM SCT030 SCT250
     FM202000 26007KT P6SM VCTS SCT040CB BKN250
     FM210600 22004KT P6SM SCT050 BKN250
     FM211400 23007KT P6SM SCT040 BKN250=



000
FTUS43 KLMK 201500 AAA
TAFBWG
TAF AMD
KBWG 201516Z 2015/2112 25007KT P6SM BKN016
     FM201800 22007KT P6SM BKN025
     FM202200 22003KT P6SM VCTS BKN050CB
     FM210400 20003KT P6SM SCT050 BKN250=



000
FTUS43 KLMK 201100 AAA
TAFSDF
TAF AMD
KSDF 201151Z 2012/2118 25006KT P6SM FEW040 FEW200
     FM202200 27006KT P6SM VCTS BKN050CB
     FM210400 18003KT P6SM SCT050 BKN250=



000
FTUS43 KLMK 201100
TAFSDF
TAF
KSDF 201126Z 2012/2118 23004KT P6SM FEW040 FEW200
     FM202200 20004KT P6SM VCTS BKN050CB
     FM210400 18003KT P6SM SCT050 BKN250=



000
FTUS43 KLMK 201100
TAFLEX
TAF
KLEX 201126Z 2012/2112 13005KT 6SM BR BKN021
     FM201300 18007KT P6SM SCT030
     FM210000 27008KT P6SM VCTS BKN050CB
     FM210600 20003KT P6SM SCT050 BKN250=



000
FTUS43 KLMK 201100
TAFBWG
TAF
KBWG 201126Z 2012/2112 20003KT 6SM BR SKC
     FM201300 24007KT P6SM SCT050
     FM202200 22003KT P6SM VCTS BKN050CB
     FM210400 20003KT P6SM SCT050 BKN250=



000
FTUS43 KLMK 200800 AAA
TAFLEX
TAF AMD
KLEX 200806Z 2008/2106 20005KT P6SM -SHRA VCTS BKN025CB
     FM201000 20005KT 4SM BR SCT150
     FM201300 21007KT P6SM SCT040
     FM210000 27008KT P6SM VCTS BKN050CB=



000
FTUS43 KLMK 200500
TAFLEX
TAF
KLEX 200520Z 2006/2106 20005KT P6SM -SHRA VCTS BKN040CB
     FM200630 20005KT P6SM SCT040
     FM200900 20005KT 4SM BR SCT150
     FM201300 21007KT P6SM SCT040
     FM210000 27008KT P6SM VCTS BKN050CB=



000
FTUS43 KLMK 200500
TAFSDF
TAF
KSDF 200520Z 2006/2112 20006KT P6SM FEW040 BKN200
     FM201100 21004KT 6SM BR FEW100
     FM201300 23006KT P6SM SCT040
     FM202200 20004KT P6SM VCTS BKN050CB
     FM210400 18003KT P6SM SCT050 BKN250=



000
FTUS43 KLMK 200500
TAFBWG
TAF
KBWG 200520Z 2006/2106 23004KT P6SM SCT150
     FM200900 20003KT 4SM BR FEW150
     FM201300 24007KT P6SM SCT050
     FM202200 22003KT P6SM VCTS BKN050CB=



000
FTUS43 KLMK 200100 AAA
TAFSDF
TAF AMD
KSDF 200124Z 2001/2106 20006KT P6SM BKN150
     FM200700 24005KT 6SM HZ BKN080
     FM201300 26008KT P6SM SCT040
     FM210000 20004KT P6SM SCT250=



000
FTUS43 KLMK 200100 AAA
TAFBWG
TAF AMD
KBWG 200119Z 2001/2024 20005KT P6SM SCT050
     FM200600 VRB03KT 5SM BR SCT250
      TEMPO 2010/2012 2SM BR
     FM201400 26007KT P6SM SCT050=



000
FTUS43 KLMK 192300
TAFLEX
TAF
KLEX 192327Z 2000/2024 23007KT P6SM SCT040
     FM200800 VRB03KT 4SM BR SCT250
      TEMPO 2010/2012 2SM BR
     FM201400 25007KT P6SM SCT040=



000
FTUS43 KLMK 192300
TAFSDF
TAF
KSDF 192327Z 2000/2106 20008KT P6SM SCT040
     FM200100 21007KT P6SM VCTS BKN040CB
     FM200400 24005KT 6SM HZ BKN080
     FM201300 26008KT P6SM SCT040
     FM210000 20004KT P6SM SCT250=



000
FTUS43 KLMK 192300
TAFBWG
TAF
KBWG 192327Z 2000/2024 20005KT P6SM SCT050
     FM200100 21005KT P6SM VCTS SCT035CB BKN100
     FM200600 VRB03KT 5SM BR SCT250
      TEMPO 2010/2012 2SM BR
     FM201400 26007KT P6SM SCT050=



000
FTUS43 KLMK 191900 AAA
TAFSDF
TAF AMD
KSDF 191902Z 1919/2024 VRB05KT P6SM SCT040
     FM192200 21007KT P6SM VCTS BKN040CB
     FM200400 24005KT 6SM HZ BKN090
     FM201300 26008KT P6SM SCT035=



000
FTUS43 KLMK 191700
TAFSDF
TAF
KSDF 191720Z 1918/2024 24007KT P6SM SCT035
     FM200100 21007KT P6SM BKN035
     FM200600 24005KT 6SM HZ BKN090
     FM201300 26008KT P6SM SCT035=



000
FTUS43 KLMK 191700
TAFBWG
TAF
KBWG 191720Z 1918/2018 20005KT P6SM BKN035
     FM192300 20005KT P6SM VCTS SCT035CB BKN100
     FM200800 VRB03KT 5SM BR SCT250
      TEMPO 2009/2013 1SM BR
     FM201400 25005KT P6SM SCT050=



000
FTUS43 KLMK 191700
TAFLEX
TAF
KLEX 191720Z 1918/2018 22007KT P6SM SCT030
     FM200200 20005KT P6SM BKN040 BKN250
     FM200600 VRB03KT 4SM BR SCT250
      TEMPO 2008/2012 1SM BR
     FM201500 25007KT P6SM SCT250=



000
FTUS43 KLMK 191400 AAA
TAFLEX
TAF AMD
KLEX 191401Z 1914/2012 26005KT 3SM HZ BKN005
     FM191500 25008KT 5SM HZ BKN015
     FM191700 25008KT P6SM BKN040
     FM200100 23005KT P6SM SCT035 BKN080=



000
FTUS43 KLMK 191400 AAA
TAFBWG
TAF AMD
KBWG 191400Z 1914/2012 27007KT P6SM BKN006
     FM191500 28005KT P6SM BKN017
     FM191700 21008KT P6SM BKN040
     FM200000 20006KT P6SM SCT035 BKN080=



    US Dept of Commerce
    National Oceanic and Atmospheric Administration
    National Weather Service
    1325 East West Highway
    Silver Spring, MD 20910
    Page Author: NWS Internet Services Team
Disclaimer
Information Quality
Credits
Glossary
Privacy Policy
Freedom of Information Act (FOIA)
About Us
Career Opportunities